Time;durP1;ratioP1;P1;durP2;ratioP2;P2;SDS_P1;SDS_P2;PMS_P1;PMS_P2;Temp;Humidity;BMP_temperature;BMP_pressure;BME280_temperature;BME280_humidity;BME280_pressure;Samples;Min_cycle;Max_cycle;Signal;HPM_P1;HPM_P2
2021/05/15 00:02:13;;;;;;;0.70;0.70;;;;;;;;;;4995673;28;20117;-73
2021/05/15 00:04:39;;;;;;;0.65;0.40;;;;;;;;;;4995466;28;20488;-74
2021/05/15 00:07:04;;;;;;;1.05;0.70;;;;;;;;;;4995306;28;20081;-73
2021/05/15 00:09:30;;;;;;;0.57;0.40;;;;;;;;;;4997669;28;20041;-74
2021/05/15 00:11:56;;;;;;;2.25;0.57;;;;;;;;;;4997432;28;20044;-74
2021/05/15 00:14:22;;;;;;;0.70;0.50;;;;;;;;;;5013592;28;20477;-74
2021/05/15 00:16:47;;;;;;;1.95;0.50;;;;;;;;;;5013385;28;20064;-74
2021/05/15 00:19:12;;;;;;;2.35;0.68;;;;;;;;;;5014795;28;20072;-74
2021/05/15 00:21:38;;;;;;;0.70;0.60;;;;;;;;;;5014883;28;20050;-74
2021/05/15 00:24:04;;;;;;;0.40;0.40;;;;;;;;;;5013176;28;20084;-74
2021/05/15 00:26:29;;;;;;;1.23;0.52;;;;;;;;;;5014236;28;20042;-74
2021/05/15 00:28:55;;;;;;;0.98;0.60;;;;;;;;;;5014713;28;20037;-74
2021/05/15 00:31:21;;;;;;;1.40;0.70;;;;;;;;;;4996607;28;20044;-74
2021/05/15 00:33:46;;;;;;;0.55;0.55;;;;;;;;;;5013462;28;20392;-74
2021/05/15 00:36:12;;;;;;;0.50;0.50;;;;;;;;;;5011827;28;20077;-74
2021/05/15 00:38:37;;;;;;;1.48;0.63;;;;;;;;;;4994677;28;20049;-74
2021/05/15 00:41:02;;;;;;;1.30;0.60;;;;;;;;;;4994825;28;20168;-72
2021/05/15 00:43:29;;;;;;;1.73;0.85;;;;;;;;;;4994587;28;20045;-74
2021/05/15 00:45:54;;;;;;;0.60;0.60;;;;;;;;;;4994449;28;20077;-74
2021/05/15 00:48:20;;;;;;;0.65;0.65;;;;;;;;;;4993442;28;20081;-73
2021/05/15 00:50:45;;;;;;;1.65;0.60;;;;;;;;;;5006169;28;20088;-73
2021/05/15 00:53:11;;;;;;;1.05;0.60;;;;;;;;;;5013832;28;20038;-72
2021/05/15 00:55:36;;;;;;;1.45;0.70;;;;;;;;;;5013717;28;20042;-73
2021/05/15 00:58:02;;;;;;;0.98;0.68;;;;;;;;;;5012982;28;20047;-73
2021/05/15 01:00:28;;;;;;;1.50;0.45;;;;;;;;;;5013943;28;20045;-73
2021/05/15 01:02:54;;;;;;;0.63;0.57;;;;;;;;;;4997587;28;20042;-73
2021/05/15 01:05:19;;;;;;;0.60;0.60;;;;;;;;;;4994096;28;20038;-72
2021/05/15 01:07:46;;;;;;;1.33;0.70;;;;;;;;;;4994244;28;20038;-73
2021/05/15 01:10:12;;;;;;;0.50;0.50;;;;;;;;;;4976999;28;20041;-73
2021/05/15 01:12:45;;;;;;;1.67;0.70;;;;;;;;;;4994219;28;20050;-71
2021/05/15 01:15:11;;;;;;;;;;;;;;;;;;4993338;28;20531;-74
2021/05/15 01:17:36;;;;;;;1.33;0.60;;;;;;;;;;4992704;28;19914;-73
2021/05/15 01:20:02;;;;;;;1.17;0.70;;;;;;;;;;4994147;28;20066;-72
2021/05/15 01:22:27;;;;;;;1.15;0.60;;;;;;;;;;4992666;28;20383;-73
2021/05/15 01:24:53;;;;;;;2.63;0.60;;;;;;;;;;4993787;28;20035;-73
2021/05/15 01:27:18;;;;;;;1.52;0.60;;;;;;;;;;4993757;28;20053;-74
2021/05/15 01:29:43;;;;;;;0.77;0.50;;;;;;;;;;4997408;28;20040;-74
2021/05/15 01:32:09;;;;;;;0.50;0.50;;;;;;;;;;5008192;28;20599;-73
2021/05/15 01:34:35;;;;;;;0.95;0.50;;;;;;;;;;4993636;28;20532;-73
2021/05/15 01:37:00;;;;;;;0.70;0.40;;;;;;;;;;4992383;28;20412;-74
2021/05/15 01:39:26;;;;;;;0.82;0.40;;;;;;;;;;4993117;28;20117;-73
2021/05/15 01:41:51;;;;;;;1.52;0.60;;;;;;;;;;4998496;28;20087;-73
2021/05/15 01:44:17;;;;;;;0.75;0.60;;;;;;;;;;5013042;28;20470;-73
2021/05/15 01:46:42;;;;;;;2.90;0.70;;;;;;;;;;5012013;28;20042;-73
2021/05/15 01:49:08;;;;;;;2.25;0.70;;;;;;;;;;5013561;28;20037;-74
2021/05/15 01:51:33;;;;;;;2.83;0.80;;;;;;;;;;4996862;28;20035;-74
2021/05/15 01:53:59;;;;;;;1.35;0.52;;;;;;;;;;4993445;28;20109;-73
2021/05/15 01:56:26;;;;;;;2.13;0.60;;;;;;;;;;4993043;28;20026;-73
2021/05/15 01:58:52;;;;;;;0.93;0.50;;;;;;;;;;4993240;28;20391;-73
2021/05/15 02:01:19;;;;;;;2.70;0.95;;;;;;;;;;4992242;28;20125;-73
2021/05/15 02:03:45;;;;;;;0.50;0.50;;;;;;;;;;4992029;28;20402;-73
2021/05/15 02:06:10;;;;;;;1.00;0.60;;;;;;;;;;4991269;28;20034;-73
2021/05/15 02:08:36;;;;;;;3.50;1.20;;;;;;;;;;4993094;28;20050;-73
2021/05/15 02:11:02;;;;;;;0.65;0.55;;;;;;;;;;4991964;28;20037;-74
2021/05/15 02:13:28;;;;;;;2.83;0.60;;;;;;;;;;4992118;28;20478;-73
2021/05/15 02:15:55;;;;;;;1.98;0.60;;;;;;;;;;5011175;28;20033;-73
2021/05/15 02:18:20;;;;;;;0.68;0.55;;;;;;;;;;5012568;28;20108;-73
2021/05/15 02:20:46;;;;;;;0.70;0.70;;;;;;;;;;5012540;28;20037;-73
2021/05/15 02:23:13;;;;;;;1.90;0.60;;;;;;;;;;5012488;28;20144;-73
2021/05/15 02:25:38;;;;;;;2.08;0.60;;;;;;;;;;5009694;28;20064;-73
2021/05/15 02:28:04;;;;;;;0.65;0.57;;;;;;;;;;5005645;28;20046;-73
2021/05/15 02:30:30;;;;;;;1.90;0.60;;;;;;;;;;5012294;28;20049;-73
2021/05/15 02:32:55;;;;;;;2.28;0.70;;;;;;;;;;5011279;28;20065;-74
2021/05/15 02:35:21;;;;;;;0.50;0.50;;;;;;;;;;5010869;28;20476;-73
2021/05/15 02:37:47;;;;;;;1.27;0.68;;;;;;;;;;5012338;28;20046;-73
2021/05/15 02:40:13;;;;;;;0.65;0.40;;;;;;;;;;5012212;28;20033;-74
2021/05/15 02:42:38;;;;;;;1.15;0.65;;;;;;;;;;5012125;28;20072;-73
2021/05/15 02:45:06;;;;;;;0.82;0.52;;;;;;;;;;5012250;28;20555;-74
2021/05/15 02:47:31;;;;;;;1.45;0.60;;;;;;;;;;5010780;28;20034;-73
2021/05/15 02:49:57;;;;;;;1.48;0.88;;;;;;;;;;5012229;28;20064;-73
2021/05/15 02:52:22;;;;;;;2.47;0.90;;;;;;;;;;5012311;28;20450;-73
2021/05/15 02:54:47;;;;;;;1.05;0.73;;;;;;;;;;5012238;28;20036;-74
2021/05/15 02:57:13;;;;;;;1.65;0.77;;;;;;;;;;5012018;28;20046;-73
2021/05/15 02:59:38;;;;;;;0.60;0.60;;;;;;;;;;5010845;28;20041;-73
2021/05/15 03:02:04;;;;;;;1.58;0.80;;;;;;;;;;5004613;28;20064;-74
2021/05/15 03:04:30;;;;;;;1.02;0.70;;;;;;;;;;4992188;28;20484;-74
2021/05/15 03:06:55;;;;;;;1.92;0.70;;;;;;;;;;4991179;28;20101;-74
2021/05/15 03:09:20;;;;;;;2.17;0.82;;;;;;;;;;4992364;28;20205;-73
2021/05/15 03:11:46;;;;;;;1.58;0.70;;;;;;;;;;4992290;28;20034;-72
2021/05/15 03:14:11;;;;;;;1.90;0.73;;;;;;;;;;4992316;28;20034;-73
2021/05/15 03:16:37;;;;;;;0.70;0.70;;;;;;;;;;4993571;28;20072;-74
2021/05/15 03:19:03;;;;;;;2.33;1.10;;;;;;;;;;4996505;28;20568;-73
2021/05/15 03:21:28;;;;;;;2.17;0.80;;;;;;;;;;4995942;28;20113;-72
2021/05/15 03:23:54;;;;;;;2.67;0.80;;;;;;;;;;4995170;28;20425;-74
2021/05/15 03:26:19;;;;;;;1.10;0.77;;;;;;;;;;4995777;28;20038;-73
2021/05/15 03:28:44;;;;;;;2.35;0.90;;;;;;;;;;4996124;28;20541;-73
2021/05/15 03:31:13;;;;;;;1.38;0.80;;;;;;;;;;4996665;28;20503;-74
2021/05/15 03:33:39;;;;;;;4.20;0.70;;;;;;;;;;5002192;28;20504;-73
2021/05/15 03:36:04;;;;;;;1.10;0.88;;;;;;;;;;5015416;28;20042;-73
2021/05/15 03:38:30;;;;;;;1.23;0.75;;;;;;;;;;5015403;28;20087;-74
2021/05/15 03:40:56;;;;;;;1.02;0.93;;;;;;;;;;5015443;28;20061;-74
2021/05/15 03:43:21;;;;;;;5.50;0.73;;;;;;;;;;5014234;28;20561;-74
2021/05/15 03:45:47;;;;;;;2.33;1.50;;;;;;;;;;5076661;22;20037;-69
2021/05/15 03:48:19;;;;;;;2.08;0.68;;;;;;;;;;5063485;28;20041;-68
2021/05/15 03:50:45;;;;;;;2.33;0.90;;;;;;;;;;5069141;28;20087;-68
2021/05/15 03:53:10;;;;;;;1.77;0.85;;;;;;;;;;5070652;28;20104;-69
2021/05/15 03:55:36;;;;;;;2.92;1.20;;;;;;;;;;5055234;28;20030;-68
2021/05/15 03:58:03;;;;;;;2.60;0.90;;;;;;;;;;5049381;28;20041;-71
2021/05/15 04:00:29;;;;;;;2.88;1.20;;;;;;;;;;5046424;28;20040;-70
2021/05/15 04:02:54;;;;;;;2.20;1.25;;;;;;;;;;5043823;28;20049;-70
2021/05/15 04:05:20;;;;;;;1.55;1.00;;;;;;;;;;5041234;28;20044;-71
2021/05/15 04:07:45;;;;;;;1.23;0.98;;;;;;;;;;5038525;28;20150;-70
2021/05/15 04:10:11;;;;;;;3.50;0.98;;;;;;;;;;5022858;28;20030;-70
2021/05/15 04:12:36;;;;;;;1.50;1.05;;;;;;;;;;5040656;28;20053;-70
2021/05/15 04:15:11;;;;;;;1.88;0.70;;;;;;;;;;5050888;28;20029;-70
2021/05/15 04:17:36;;;;;;;1.38;0.90;;;;;;;;;;5047876;28;20049;-71
2021/05/15 04:20:03;;;;;;;2.90;0.80;;;;;;;;;;5032502;28;20060;-70
2021/05/15 04:22:28;;;;;;;4.25;1.20;;;;;;;;;;5044522;28;20053;-70
2021/05/15 04:24:54;;;;;;;1.15;1.00;;;;;;;;;;5039126;28;20038;-70
2021/05/15 04:27:19;;;;;;;1.23;0.90;;;;;;;;;;5037405;28;20056;-71
2021/05/15 04:29:45;;;;;;;1.15;0.85;;;;;;;;;;5021158;28;20029;-71
2021/05/15 04:32:11;;;;;;;0.80;0.80;;;;;;;;;;5022041;28;20117;-71
2021/05/15 04:34:36;;;;;;;1.33;0.80;;;;;;;;;;5020846;28;20373;-71
2021/05/15 04:37:02;;;;;;;5.35;0.98;;;;;;;;;;5044506;28;20079;-71
2021/05/15 04:39:28;;;;;;;2.17;0.82;;;;;;;;;;5027631;28;20595;-71
2021/05/15 04:41:55;;;;;;;1.67;0.73;;;;;;;;;;5021905;28;20037;-71
2021/05/15 04:44:21;;;;;;;2.08;0.70;;;;;;;;;;5020414;28;20072;-70
2021/05/15 04:46:46;;;;;;;1.50;0.80;;;;;;;;;;5019434;28;20064;-70
2021/05/15 04:49:12;;;;;;;2.88;0.82;;;;;;;;;;5035338;28;20128;-70
2021/05/15 04:51:37;;;;;;;0.85;0.70;;;;;;;;;;5034508;28;20063;-70
2021/05/15 04:54:03;;;;;;;0.95;0.63;;;;;;;;;;5035347;28;20034;-70
2021/05/15 04:56:29;;;;;;;1.27;0.80;;;;;;;;;;5018109;28;20060;-70
2021/05/15 04:58:55;;;;;;;2.55;0.88;;;;;;;;;;5002081;28;20034;-70
2021/05/15 05:01:20;;;;;;;1.67;0.60;;;;;;;;;;5017913;28;20107;-70
2021/05/15 05:03:46;;;;;;;1.85;1.20;;;;;;;;;;5034530;28;20068;-69
2021/05/15 05:06:12;;;;;;;3.30;0.70;;;;;;;;;;5034497;28;20030;-70
2021/05/15 05:08:37;;;;;;;1.00;0.63;;;;;;;;;;5034229;28;20041;-70
2021/05/15 05:11:03;;;;;;;2.63;0.70;;;;;;;;;;5035478;28;20029;-71
2021/05/15 05:13:28;;;;;;;0.75;0.70;;;;;;;;;;5017922;28;20037;-69
2021/05/15 05:15:53;;;;;;;1.58;0.75;;;;;;;;;;5033983;28;20034;-70
2021/05/15 05:18:19;;;;;;;4.20;0.80;;;;;;;;;;5033844;28;20132;-69
2021/05/15 05:20:44;;;;;;;1.00;0.70;;;;;;;;;;5032961;28;20033;-69
2021/05/15 05:23:10;;;;;;;1.73;0.70;;;;;;;;;;5016441;28;20045;-69
2021/05/15 05:25:35;;;;;;;1.88;0.80;;;;;;;;;;5033869;28;20096;-70
2021/05/15 05:28:01;;;;;;;0.60;0.60;;;;;;;;;;5024327;28;20082;-69
2021/05/15 05:30:26;;;;;;;0.70;0.60;;;;;;;;;;5029886;28;20064;-69
2021/05/15 05:32:52;;;;;;;1.15;0.52;;;;;;;;;;5043524;28;20044;-69
2021/05/15 05:35:18;;;;;;;1.92;0.63;;;;;;;;;;5042166;28;20450;-70
2021/05/15 05:37:44;;;;;;;1.13;0.63;;;;;;;;;;5009593;28;20040;-69
2021/05/15 05:40:11;;;;;;;0.77;0.50;;;;;;;;;;5032300;28;20037;-69
2021/05/15 05:42:39;;;;;;;1.20;0.50;;;;;;;;;;5052193;28;20044;-70
2021/05/15 05:45:09;;;;;;;1.30;0.57;;;;;;;;;;5052058;28;20029;-69
2021/05/15 05:47:35;;;;;;;2.42;0.60;;;;;;;;;;5051921;28;20056;-68
2021/05/15 05:50:00;;;;;;;0.93;0.93;;;;;;;;;;5052114;28;20029;-69
2021/05/15 05:52:26;;;;;;;0.93;0.70;;;;;;;;;;5035182;28;20446;-69
2021/05/15 05:54:52;;;;;;;1.13;0.60;;;;;;;;;;5031197;28;20112;-68
2021/05/15 05:57:17;;;;;;;0.57;0.50;;;;;;;;;;5025321;28;20098;-68
2021/05/15 05:59:42;;;;;;;1.30;0.50;;;;;;;;;;5052915;28;20048;-69
2021/05/15 06:02:09;;;;;;;1.02;0.50;;;;;;;;;;5051909;28;20025;-69
2021/05/15 06:04:34;;;;;;;1.08;0.60;;;;;;;;;;5067902;28;20098;-69
2021/05/15 06:07:00;;;;;;;0.60;0.55;;;;;;;;;;5052714;28;20445;-70
2021/05/15 06:09:25;;;;;;;0.50;0.50;;;;;;;;;;5068411;28;20124;-70
2021/05/15 06:11:50;;;;;;;0.60;0.60;;;;;;;;;;5051476;28;20024;-70
2021/05/15 06:14:16;;;;;;;1.92;0.57;;;;;;;;;;5008246;28;24171;-71
2021/05/15 06:16:41;;;;;;;1.30;0.60;;;;;;;;;;4965367;28;20045;-70
2021/05/15 06:19:07;;;;;;;1.90;0.60;;;;;;;;;;5051443;28;20048;-70
2021/05/15 06:21:32;;;;;;;0.30;0.30;;;;;;;;;;5034647;28;20082;-69
2021/05/15 06:23:57;;;;;;;1.15;0.40;;;;;;;;;;5052317;28;20431;-69
2021/05/15 06:26:23;;;;;;;1.38;0.60;;;;;;;;;;5049835;28;20391;-69
2021/05/15 06:28:48;;;;;;;1.25;0.45;;;;;;;;;;5014614;28;20037;-70
2021/05/15 06:31:14;;;;;;;1.98;0.60;;;;;;;;;;5022931;28;20030;-69
2021/05/15 06:33:39;;;;;;;2.72;1.80;;;;;;;;;;5012336;28;20121;-69
2021/05/15 06:36:05;;;;;;;6.70;4.43;;;;;;;;;;5012319;28;20069;-69
2021/05/15 06:38:30;;;;;;;1.55;1.15;;;;;;;;;;5011270;28;20049;-69
2021/05/15 06:40:56;;;;;;;1.77;1.02;;;;;;;;;;5012442;28;20092;-68
2021/05/15 06:43:21;;;;;;;1.60;1.20;;;;;;;;;;5009007;28;20044;-68
2021/05/15 06:45:47;;;;;;;2.00;0.75;;;;;;;;;;5009762;28;20643;-70
2021/05/15 06:48:12;;;;;;;1.45;0.77;;;;;;;;;;5009516;28;20044;-69
2021/05/15 06:50:38;;;;;;;0.40;0.40;;;;;;;;;;5008606;28;20037;-69
2021/05/15 06:53:03;;;;;;;1.23;0.90;;;;;;;;;;5010183;28;20045;-69
2021/05/15 06:55:29;;;;;;;2.20;0.47;;;;;;;;;;5006913;28;20128;-69
2021/05/15 06:57:54;;;;;;;0.75;0.43;;;;;;;;;;5011015;28;20412;-69
2021/05/15 07:00:21;;;;;;;1.58;0.55;;;;;;;;;;5008741;28;20125;-68
2021/05/15 07:02:47;;;;;;;1.05;0.60;;;;;;;;;;5010411;28;20054;-70
2021/05/15 07:05:13;;;;;;;1.90;0.70;;;;;;;;;;4992583;28;20563;-69
2021/05/15 07:07:38;;;;;;;0.70;0.50;;;;;;;;;;5009129;28;20041;-68
2021/05/15 07:10:04;;;;;;;1.35;0.50;;;;;;;;;;5008819;28;20040;-70
2021/05/15 07:12:29;;;;;;;2.35;0.50;;;;;;;;;;5009895;28;20532;-69
2021/05/15 07:14:55;;;;;;;0.75;0.60;;;;;;;;;;5010283;28;20128;-69
2021/05/15 07:17:29;;;;;;;1.02;0.40;;;;;;;;;;5019655;28;20033;-70
2021/05/15 07:19:55;;;;;;;4.20;0.82;;;;;;;;;;5032902;28;20123;-69
2021/05/15 07:22:22;;;;;;;1.92;0.60;;;;;;;;;;5035768;28;20044;-69
2021/05/15 07:24:49;;;;;;;0.45;0.43;;;;;;;;;;5028359;28;20045;-69
2021/05/15 07:27:15;;;;;;;0.57;0.30;;;;;;;;;;5029075;28;20037;-68
2021/05/15 07:29:41;;;;;;;0.57;0.40;;;;;;;;;;5012326;28;20049;-69
2021/05/15 07:32:06;;;;;;;0.63;0.30;;;;;;;;;;5028394;28;20384;-69
2021/05/15 07:34:32;;;;;;;0.50;0.40;;;;;;;;;;5015913;28;20038;-70
2021/05/15 07:36:57;;;;;;;0.40;0.40;;;;;;;;;;5039541;28;20120;-71
2021/05/15 07:39:23;;;;;;;0.50;0.50;;;;;;;;;;5028556;28;20059;-72
2021/05/15 07:41:48;;;;;;;1.63;0.57;;;;;;;;;;5013574;28;20025;-72
2021/05/15 07:44:14;;;;;;;0.60;0.20;;;;;;;;;;5028795;28;20139;-69
2021/05/15 07:46:39;;;;;;;0.52;0.40;;;;;;;;;;5018902;28;20075;-69
2021/05/15 07:49:05;;;;;;;0.77;0.47;;;;;;;;;;5050018;28;20044;-70
2021/05/15 07:51:30;;;;;;;1.00;0.45;;;;;;;;;;5020629;28;20025;-69
2021/05/15 07:53:57;;;;;;;1.02;0.30;;;;;;;;;;5029491;28;20034;-69
2021/05/15 07:56:22;;;;;;;1.42;0.70;;;;;;;;;;5029700;28;20045;-71
2021/05/15 07:58:48;;;;;;;0.63;0.45;;;;;;;;;;5013400;28;20037;-70
2021/05/15 08:01:14;;;;;;;1.80;0.40;;;;;;;;;;5029828;28;20104;-71
2021/05/15 08:03:39;;;;;;;0.30;0.30;;;;;;;;;;5043585;28;20491;-70
2021/05/15 08:06:04;;;;;;;0.90;0.40;;;;;;;;;;5054080;28;20116;-70
2021/05/15 08:08:30;;;;;;;1.38;0.52;;;;;;;;;;5053320;28;20048;-71
2021/05/15 08:10:55;;;;;;;0.77;0.40;;;;;;;;;;5053470;28;20043;-71
2021/05/15 08:13:23;;;;;;;3.38;0.60;;;;;;;;;;5025253;28;20051;-71
2021/05/15 08:15:49;;;;;;;0.30;0.30;;;;;;;;;;5030032;28;20090;-71
2021/05/15 08:18:14;;;;;;;1.60;0.57;;;;;;;;;;5017821;28;20160;-70
2021/05/15 08:20:39;;;;;;;0.60;0.32;;;;;;;;;;5026806;28;20041;-71
2021/05/15 08:23:05;;;;;;;0.52;0.40;;;;;;;;;;5024466;28;20488;-72
2021/05/15 08:25:31;;;;;;;0.60;0.50;;;;;;;;;;5007138;28;20041;-72
2021/05/15 08:28:04;;;;;;;0.95;0.43;;;;;;;;;;5026560;28;20037;-74
2021/05/15 08:30:33;;;;;;;1.40;0.40;;;;;;;;;;5001976;28;20113;-69
2021/05/15 08:32:59;;;;;;;0.55;0.38;;;;;;;;;;4990365;28;20037;-69
2021/05/15 08:35:25;;;;;;;0.90;0.40;;;;;;;;;;5036724;28;20087;-70
2021/05/15 08:37:52;;;;;;;1.23;0.60;;;;;;;;;;5023993;28;20029;-71
2021/05/15 08:40:18;;;;;;;1.80;0.55;;;;;;;;;;5023864;28;20119;-71
2021/05/15 08:42:44;;;;;;;0.50;0.50;;;;;;;;;;5037317;28;20045;-69
2021/05/15 08:45:11;;;;;;;1.48;0.82;;;;;;;;;;5039707;28;20038;-70
2021/05/15 08:47:38;;;;;;;0.65;0.50;;;;;;;;;;5004335;28;20061;-69
2021/05/15 08:50:09;;;;;;;0.50;0.30;;;;;;;;;;5041463;28;20416;-72
2021/05/15 08:52:39;;;;;;;1.70;1.00;;;;;;;;;;5022623;28;20098;-73
2021/05/15 08:55:10;;;;;;;0.77;0.35;;;;;;;;;;5002173;28;20374;-73
2021/05/15 08:57:36;;;;;;;2.17;0.40;;;;;;;;;;5019953;28;20025;-73
2021/05/15 09:00:11;;;;;;;1.02;0.55;;;;;;;;;;5021499;28;20489;-71
2021/05/15 09:02:37;;;;;;;1.02;0.40;;;;;;;;;;5029134;28;20036;-72
2021/05/15 09:05:07;;;;;;;0.75;0.75;;;;;;;;;;5018458;28;20569;-72
2021/05/15 09:07:34;;;;;;;0.60;0.57;;;;;;;;;;5021442;28;20497;-71
2021/05/15 09:10:00;;;;;;;1.48;0.55;;;;;;;;;;5022229;28;20116;-72
2021/05/15 09:12:27;;;;;;;0.32;0.28;;;;;;;;;;5010765;28;20092;-72
2021/05/15 09:15:03;;;;;;;1.02;0.52;;;;;;;;;;5032209;28;20045;-72
2021/05/15 09:17:48;;;;;;;1.23;0.60;;;;;;;;;;5016077;28;20081;-73
2021/05/15 09:20:25;;;;;;;3.75;0.50;;;;;;;;;;5012701;28;20050;-73
2021/05/15 09:22:52;;;;;;;1.35;0.50;;;;;;;;;;4996690;28;20053;-73
2021/05/15 09:25:19;;;;;;;1.45;0.60;;;;;;;;;;5012198;28;20558;-73
2021/05/15 09:27:46;;;;;;;0.70;0.47;;;;;;;;;;5002162;28;20111;-73
2021/05/15 09:30:14;;;;;;;0.70;0.40;;;;;;;;;;5012813;28;20523;-71
2021/05/15 09:32:40;;;;;;;2.00;0.47;;;;;;;;;;5012588;28;20463;-71
2021/05/15 09:35:08;;;;;;;0.50;0.40;;;;;;;;;;5021439;28;20049;-71
2021/05/15 09:37:39;;;;;;;3.50;0.70;;;;;;;;;;5009634;28;20054;-70
2021/05/15 09:40:27;;;;;;;1.75;0.50;;;;;;;;;;5030442;28;20111;-71
2021/05/15 09:43:07;;;;;;;2.05;0.70;;;;;;;;;;5020214;28;20069;-76
2021/05/15 09:45:37;;;;;;;1.98;0.68;;;;;;;;;;5021477;28;20042;-73
2021/05/15 09:48:08;;;;;;;1.77;0.40;;;;;;;;;;5066112;22;20076;-72
2021/05/15 09:50:40;;;;;;;1.52;0.40;;;;;;;;;;5056749;28;20045;-73
2021/05/15 09:53:25;;;;;;;1.58;0.70;;;;;;;;;;5044146;28;20049;-74
2021/05/15 09:55:53;;;;;;;3.25;2.38;;;;;;;;;;5041907;28;20072;-70
2021/05/15 09:58:20;;;;;;;2.00;1.40;;;;;;;;;;5052446;28;20110;-69
2021/05/15 10:00:54;;;;;;;5.47;2.45;;;;;;;;;;5024173;28;20111;-72
2021/05/15 10:03:20;;;;;;;3.38;2.22;;;;;;;;;;5035396;28;20095;-75
2021/05/15 10:06:07;;;;;;;2.10;1.75;;;;;;;;;;5034477;28;20087;-75
2021/05/15 10:08:36;;;;;;;2.25;0.88;;;;;;;;;;5029838;28;20441;-73
2021/05/15 10:11:06;;;;;;;1.23;0.60;;;;;;;;;;5019756;28;20085;-75
2021/05/15 10:13:37;;;;;;;3.70;0.70;;;;;;;;;;5037858;28;20095;-73
2021/05/15 10:16:04;;;;;;;4.22;0.73;;;;;;;;;;5055177;28;20049;-76
2021/05/15 10:18:38;;;;;;;1.13;0.50;;;;;;;;;;5026310;28;20109;-72
2021/05/15 10:21:05;;;;;;;0.77;0.40;;;;;;;;;;5041499;28;20088;-71
2021/05/15 10:23:36;;;;;;;1.50;1.08;;;;;;;;;;5039591;28;20102;-71
2021/05/15 10:26:05;;;;;;;2.67;0.45;;;;;;;;;;5036315;28;20057;-70
2021/05/15 10:28:34;;;;;;;0.50;0.50;;;;;;;;;;5038574;28;20076;-72
2021/05/15 10:31:05;;;;;;;1.95;0.57;;;;;;;;;;5038190;28;20053;-73
2021/05/15 10:33:32;;;;;;;0.95;0.60;;;;;;;;;;5037811;28;20534;-74
2021/05/15 10:35:59;;;;;;;1.27;0.50;;;;;;;;;;5024412;28;20057;-74
2021/05/15 10:38:36;;;;;;;0.98;0.50;;;;;;;;;;5040329;28;20049;-73
2021/05/15 10:41:10;;;;;;;2.53;0.63;;;;;;;;;;5055007;28;20072;-73
2021/05/15 10:43:38;;;;;;;1.33;0.70;;;;;;;;;;5038368;28;20045;-72
2021/05/15 10:46:14;;;;;;;2.10;0.73;;;;;;;;;;5037981;28;20110;-72
2021/05/15 10:48:41;;;;;;;1.25;0.75;;;;;;;;;;5033202;28;20122;-72
2021/05/15 10:51:07;;;;;;;0.73;0.45;;;;;;;;;;5036845;28;20490;-73
2021/05/15 10:53:34;;;;;;;0.68;0.50;;;;;;;;;;5040170;28;20087;-73
2021/05/15 10:56:02;;;;;;;3.65;0.93;;;;;;;;;;5041438;28;20087;-73
2021/05/15 10:58:46;;;;;;;1.95;0.80;;;;;;;;;;5040945;28;20049;-72
2021/05/15 11:01:18;;;;;;;0.82;0.75;;;;;;;;;;5035687;28;20106;-74
2021/05/15 11:03:46;;;;;;;;;;;;;;;;;;5047276;28;20629;-74
2021/05/15 11:06:16;;;;;;;1.45;0.65;;;;;;;;;;5033003;28;20364;-74
2021/05/15 11:08:44;;;;;;;1.23;0.70;;;;;;;;;;5030765;28;20661;-74
2021/05/15 11:11:11;;;;;;;3.85;0.65;;;;;;;;;;5014182;28;20057;-74
2021/05/15 11:13:48;;;;;;;1.58;0.60;;;;;;;;;;5021040;28;20075;-73
2021/05/15 11:16:16;;;;;;;2.05;0.60;;;;;;;;;;5032924;28;20436;-72
2021/05/15 11:18:42;;;;;;;3.10;0.85;;;;;;;;;;5031404;28;20050;-74
2021/05/15 11:21:09;;;;;;;6.03;0.80;;;;;;;;;;5014245;28;20053;-74
2021/05/15 11:23:55;;;;;;;3.10;0.85;;;;;;;;;;5025587;28;20100;-75
2021/05/15 11:26:22;;;;;;;0.95;0.65;;;;;;;;;;5029612;28;20080;-72
2021/05/15 11:28:49;;;;;;;2.28;0.57;;;;;;;;;;5033777;28;20080;-71
2021/05/15 11:31:18;;;;;;;2.25;0.50;;;;;;;;;;5010756;28;20059;-72
2021/05/15 11:33:44;;;;;;;2.35;0.55;;;;;;;;;;5030227;28;20057;-70
2021/05/15 11:36:12;;;;;;;1.38;0.70;;;;;;;;;;5012975;28;20048;-70
2021/05/15 11:38:39;;;;;;;4.15;0.55;;;;;;;;;;5030198;28;20140;-70
2021/05/15 11:41:06;;;;;;;1.55;0.70;;;;;;;;;;5014815;28;20135;-71
2021/05/15 11:43:35;;;;;;;1.52;0.55;;;;;;;;;;5033725;28;20053;-70
2021/05/15 11:46:06;;;;;;;1.50;0.82;;;;;;;;;;5033046;28;20038;-70
2021/05/15 11:48:34;;;;;;;1.08;0.63;;;;;;;;;;5035432;28;20053;-72
2021/05/15 11:51:01;;;;;;;1.75;0.60;;;;;;;;;;5015952;28;20057;-71
2021/05/15 11:53:28;;;;;;;1.52;0.57;;;;;;;;;;5032784;28;20396;-70
2021/05/15 11:55:55;;;;;;;1.00;0.40;;;;;;;;;;5034299;28;20046;-73
2021/05/15 11:58:22;;;;;;;1.50;0.57;;;;;;;;;;5040401;28;20091;-72
2021/05/15 12:00:49;;;;;;;2.65;0.80;;;;;;;;;;5052880;28;20053;-71
2021/05/15 12:03:20;;;;;;;2.25;0.50;;;;;;;;;;5054653;28;20126;-71
2021/05/15 12:05:47;;;;;;;1.17;0.50;;;;;;;;;;5052282;28;20072;-74
2021/05/15 12:08:14;;;;;;;1.45;0.82;;;;;;;;;;5052528;28;20491;-74
2021/05/15 12:10:41;;;;;;;2.35;0.60;;;;;;;;;;5052750;28;20056;-74
2021/05/15 12:13:08;;;;;;;2.05;0.70;;;;;;;;;;5042775;28;20623;-75
2021/05/15 12:15:37;;;;;;;2.30;0.55;;;;;;;;;;5014158;28;20046;-76
2021/05/15 12:18:04;;;;;;;1.30;0.77;;;;;;;;;;5004554;28;20076;-77
2021/05/15 12:20:44;;;;;;;1.95;0.70;;;;;;;;;;5020937;28;20091;-77
2021/05/15 12:23:13;;;;;;;1.85;0.57;;;;;;;;;;5033172;28;20084;-77
2021/05/15 12:25:42;;;;;;;1.70;0.60;;;;;;;;;;5015603;28;20115;-78
2021/05/15 12:28:20;;;;;;;1.10;0.55;;;;;;;;;;5033459;28;20099;-77
2021/05/15 12:30:47;;;;;;;2.75;0.80;;;;;;;;;;5033322;28;20053;-73
2021/05/15 12:33:17;;;;;;;2.05;0.47;;;;;;;;;;5034475;28;20053;-78
2021/05/15 12:36:00;;;;;;;0.43;0.40;;;;;;;;;;5016434;28;20054;-77
2021/05/15 12:38:29;;;;;;;1.05;0.50;;;;;;;;;;5034081;28;20063;-78
2021/05/15 12:41:10;;;;;;;1.55;0.55;;;;;;;;;;5033470;28;20054;-77
2021/05/15 12:43:46;;;;;;;1.95;0.73;;;;;;;;;;5032633;28;20392;-76
2021/05/15 12:46:23;;;;;;;1.02;0.40;;;;;;;;;;5032602;28;20050;-77
2021/05/15 12:48:55;;;;;;;3.88;0.60;;;;;;;;;;5017719;28;20501;-76
2021/05/15 12:51:36;;;;;;;0.57;0.40;;;;;;;;;;5000656;28;20049;-78
2021/05/15 12:54:20;;;;;;;1.73;0.70;;;;;;;;;;5033493;28;20116;-77
2021/05/15 12:56:55;;;;;;;1.38;0.60;;;;;;;;;;5033398;28;20068;-77
2021/05/15 12:59:46;;;;;;;3.70;1.10;;;;;;;;;;5032483;28;20500;-77
2021/05/15 13:02:20;;;;;;;1.35;0.50;;;;;;;;;;5033677;28;20470;-77
2021/05/15 13:04:53;;;;;;;0.30;0.30;;;;;;;;;;5016455;28;20063;-77
2021/05/15 13:07:25;;;;;;;3.30;0.70;;;;;;;;;;5050539;28;20132;-78
2021/05/15 13:09:57;;;;;;;1.13;0.45;;;;;;;;;;5052447;28;20060;-77
2021/05/15 13:12:25;;;;;;;1.25;0.45;;;;;;;;;;5051496;28;20056;-77
2021/05/15 13:14:52;;;;;;;0.95;0.73;;;;;;;;;;5053360;28;20048;-77
2021/05/15 13:17:19;;;;;;;3.35;0.60;;;;;;;;;;5050362;28;20053;-77
2021/05/15 13:19:46;;;;;;;0.88;0.82;;;;;;;;;;5015835;28;20050;-77
2021/05/15 13:22:14;;;;;;;3.65;1.00;;;;;;;;;;5016332;28;20045;-77
2021/05/15 13:24:41;;;;;;;1.83;0.38;;;;;;;;;;5015350;28;20299;-76
2021/05/15 13:27:08;;;;;;;1.65;0.57;;;;;;;;;;5033185;28;20075;-77
2021/05/15 13:29:35;;;;;;;1.25;0.55;;;;;;;;;;5032965;28;20056;-78
2021/05/15 13:32:03;;;;;;;2.70;0.95;;;;;;;;;;5015938;28;20103;-78
2021/05/15 13:34:30;;;;;;;1.77;0.70;;;;;;;;;;5031993;28;20045;-77
2021/05/15 13:36:58;;;;;;;1.00;0.60;;;;;;;;;;5033368;28;20084;-77
2021/05/15 13:39:27;;;;;;;1.45;0.60;;;;;;;;;;5015824;28;20049;-77
2021/05/15 13:41:54;;;;;;;1.25;0.40;;;;;;;;;;5015531;28;20115;-77
2021/05/15 13:44:21;;;;;;;1.30;0.57;;;;;;;;;;4998741;28;20057;-78
2021/05/15 13:46:48;;;;;;;1.55;0.47;;;;;;;;;;5031320;28;20103;-77
2021/05/15 13:49:15;;;;;;;1.65;0.40;;;;;;;;;;5018944;28;20048;-76
2021/05/15 13:51:42;;;;;;;1.98;0.60;;;;;;;;;;5052638;28;20060;-77
2021/05/15 13:54:11;;;;;;;1.10;0.60;;;;;;;;;;5050373;28;20053;-77
2021/05/15 13:56:38;;;;;;;2.40;0.82;;;;;;;;;;5050952;28;20512;-77
2021/05/15 13:59:09;;;;;;;2.45;0.70;;;;;;;;;;5034052;28;20049;-77
2021/05/15 14:01:36;;;;;;;1.25;0.60;;;;;;;;;;5030817;28;20474;-77
2021/05/15 14:04:03;;;;;;;0.93;0.55;;;;;;;;;;5031733;28;20057;-77
2021/05/15 14:06:32;;;;;;;2.85;0.73;;;;;;;;;;5032467;28;20099;-77
2021/05/15 14:08:58;;;;;;;2.13;0.80;;;;;;;;;;5031420;28;20049;-77
2021/05/15 14:11:26;;;;;;;1.13;0.70;;;;;;;;;;5033314;28;20045;-77
2021/05/15 14:13:53;;;;;;;1.55;0.63;;;;;;;;;;5032839;28;20170;-78
2021/05/15 14:16:19;;;;;;;2.20;0.70;;;;;;;;;;5031172;28;20561;-78
2021/05/15 14:18:46;;;;;;;2.00;0.68;;;;;;;;;;5031362;28;20057;-77
2021/05/15 14:21:12;;;;;;;1.38;0.73;;;;;;;;;;5031238;28;20053;-77
2021/05/15 14:23:39;;;;;;;2.45;0.65;;;;;;;;;;5033729;28;20053;-77
2021/05/15 14:26:07;;;;;;;1.63;0.70;;;;;;;;;;5018974;28;20136;-78
2021/05/15 14:28:34;;;;;;;1.50;0.77;;;;;;;;;;5030953;28;20054;-73
2021/05/15 14:31:00;;;;;;;1.88;0.63;;;;;;;;;;5033076;28;20598;-76
2021/05/15 14:33:27;;;;;;;2.70;1.25;;;;;;;;;;5039708;28;20120;-77
2021/05/15 14:35:54;;;;;;;1.58;0.80;;;;;;;;;;5045974;28;20250;-78
2021/05/15 14:38:21;;;;;;;0.60;0.60;;;;;;;;;;5049527;28;20064;-77
2021/05/15 14:40:48;;;;;;;2.33;0.80;;;;;;;;;;5049761;28;20107;-77
2021/05/15 14:43:16;;;;;;;1.60;0.70;;;;;;;;;;5041955;28;20064;-78
2021/05/15 14:45:43;;;;;;;1.60;0.68;;;;;;;;;;5029383;28;20045;-77